Time;durP1;ratioP1;P1;durP2;ratioP2;P2;SDS_P1;SDS_P2;PMS_P1;PMS_P2;Temp;Humidity;BMP_temperature;BMP_pressure;BME280_temperature;BME280_humidity;BME280_pressure;Samples;Min_cycle;Max_cycle;Signal;HPM_P1;HPM_P2
2023/10/13 00:01:24;;;;;;;61.25;26.10;;;14.40;99.90;;;;;;5133235;27;20039;-74
2023/10/13 00:03:54;;;;;;;60.78;28.40;;;14.50;99.90;;;;;;5132101;27;20066;-74
2023/10/13 00:06:20;;;;;;;51.30;25.00;;;14.60;99.90;;;;;;5115288;27;20035;-74
2023/10/13 00:08:46;;;;;;;60.38;26.33;;;14.50;99.90;;;;;;5131918;27;20473;-74
2023/10/13 00:11:15;;;;;;;60.97;27.02;;;14.50;99.90;;;;;;5131676;27;20183;-74
2023/10/13 00:13:50;;;;;;;54.95;27.75;;;14.50;99.90;;;;;;5133332;27;20039;-74
2023/10/13 00:16:27;;;;;;;52.55;25.98;;;14.60;99.90;;;;;;5114987;27;20047;-74
2023/10/13 00:18:57;;;;;;;60.40;26.60;;;14.70;99.90;;;;;;5132894;27;20114;-74
2023/10/13 00:21:32;;;;;;;60.03;27.45;;;14.70;99.90;;;;;;5131261;27;20072;-75
2023/10/13 00:24:06;;;;;;;59.83;28.83;;;14.80;99.90;;;;;;5132075;27;20510;-74
2023/10/13 00:26:35;;;;;;;;;;;14.80;99.90;;;;;;5132426;27;20039;-74
2023/10/13 00:29:21;;;;;;;60.58;29.77;;;14.80;99.90;;;;;;5132895;27;19963;-74
2023/10/13 00:31:48;;;;;;;61.15;27.20;;;14.90;99.90;;;;;;5132871;27;20047;-74
2023/10/13 00:34:27;;;;;;;63.08;29.55;;;15.00;99.90;;;;;;5131556;27;20099;-74
2023/10/13 00:39:56;;;;;;;66.85;29.67;;;15.10;99.90;;;;;;5097704;27;20047;-74
2023/10/13 00:42:30;;;;;;;58.40;29.80;;;15.00;99.90;;;;;;5131732;27;20079;-74
2023/10/13 00:44:56;;;;;;;55.38;27.83;;;15.10;99.90;;;;;;5131710;27;20448;-74
2023/10/13 00:47:47;;;;;;;62.17;29.33;;;15.00;99.90;;;;;;5132625;27;20039;-74
2023/10/13 00:50:11;;;;;;;63.13;29.58;;;15.20;99.90;;;;;;5132207;28;20036;-74
2023/10/13 00:52:41;;;;;;;63.55;30.05;;;15.00;99.90;;;;;;5131487;28;20043;-74
2023/10/13 00:55:09;;;;;;;59.33;28.15;;;15.10;99.90;;;;;;5116715;27;20447;-74
2023/10/13 00:57:36;;;;;;;62.10;28.52;;;15.10;99.90;;;;;;5135665;27;20088;-74
2023/10/13 01:00:12;;;;;;;64.43;28.45;;;15.30;99.90;;;;;;5136594;27;20627;-74
2023/10/13 01:02:38;;;;;;;62.30;28.85;;;15.30;99.90;;;;;;5136689;27;20032;-74
2023/10/13 01:05:05;;;;;;;61.83;28.48;;;15.20;99.90;;;;;;5135477;27;20042;-74
2023/10/13 01:07:30;;;;;;;64.15;28.23;;;15.20;99.90;;;;;;5136938;27;20035;-74
2023/10/13 01:09:56;;;;;;;57.53;28.05;;;15.20;99.90;;;;;;5135439;27;20425;-74
2023/10/13 01:12:25;;;;;;;49.30;24.65;;;15.30;99.90;;;;;;5118400;27;20041;-74
2023/10/13 01:14:51;;;;;;;65.22;29.08;;;15.40;99.90;;;;;;5135717;27;20414;-74
2023/10/13 01:17:18;;;;;;;70.68;29.70;;;15.50;99.90;;;;;;5135377;27;20118;-74
2023/10/13 01:19:45;;;;;;;63.30;28.15;;;15.20;99.90;;;;;;5135167;27;20071;-74
2023/10/13 01:22:11;;;;;;;62.63;29.63;;;15.50;99.90;;;;;;5117622;27;20035;-74
2023/10/13 01:24:37;;;;;;;55.78;27.75;;;15.50;99.90;;;;;;5135156;27;20555;-74
2023/10/13 01:27:14;;;;;;;63.58;29.05;;;15.40;99.90;;;;;;5135369;27;20027;-74
2023/10/13 01:29:40;;;;;;;56.78;27.17;;;15.40;99.90;;;;;;5136257;27;20034;-74
2023/10/13 01:32:06;;;;;;;54.85;26.15;;;15.40;99.90;;;;;;5135944;27;20478;-74
2023/10/13 01:34:33;;;;;;;51.22;25.10;;;15.60;99.90;;;;;;5134971;27;20043;-74
2023/10/13 01:37:05;;;;;;;53.17;25.52;;;15.50;99.90;;;;;;5136284;27;20046;-74
2023/10/13 01:39:31;;;;;;;51.97;24.50;;;15.50;99.90;;;;;;5134750;27;20086;-74
2023/10/13 01:41:56;;;;;;;58.13;27.02;;;15.50;99.90;;;;;;5134576;27;20031;-74
2023/10/13 01:44:22;;;;;;;49.13;25.15;;;15.80;99.90;;;;;;5134675;27;20180;-74
2023/10/13 01:46:48;;;;;;;55.33;26.42;;;15.60;99.90;;;;;;5134708;27;20031;-74
2023/10/13 01:49:17;;;;;;;54.10;27.15;;;15.80;99.90;;;;;;5134534;27;20413;-74
2023/10/13 01:51:43;;;;;;;52.78;24.77;;;15.70;99.90;;;;;;5134308;27;20039;-74
2023/10/13 01:54:12;;;;;;;54.85;24.35;;;15.80;99.90;;;;;;5134635;27;20062;-74
2023/10/13 01:56:48;;;;;;;52.70;25.92;;;15.80;99.90;;;;;;5134806;27;20047;-74
2023/10/13 01:59:15;;;;;;;48.67;24.05;;;15.80;99.90;;;;;;5134344;27;20050;-74
2023/10/13 02:01:41;;;;;;;53.63;23.50;;;15.90;99.90;;;;;;5134208;27;20039;-74
2023/10/13 02:04:10;;;;;;;45.50;24.90;;;15.80;99.90;;;;;;5134758;27;20479;-74
2023/10/13 02:06:36;;;;;;;47.40;24.50;;;15.90;99.90;;;;;;5133168;27;20035;-74
2023/10/13 02:09:12;;;;;;;48.72;24.30;;;15.90;99.90;;;;;;5134371;27;20053;-74
2023/10/13 02:11:45;;;;;;;46.33;23.00;;;16.00;99.90;;;;;;5134348;27;20125;-74
2023/10/13 02:14:11;;;;;;;52.15;24.20;;;15.90;99.90;;;;;;5134192;27;20418;-74
2023/10/13 02:16:37;;;;;;;48.38;21.70;;;15.90;99.90;;;;;;5134127;27;20039;-74
2023/10/13 02:19:05;;;;;;;47.65;22.80;;;16.10;99.90;;;;;;5133989;27;20039;-74
2023/10/13 02:21:43;;;;;;;42.83;21.13;;;16.10;99.90;;;;;;5155182;22;20015;-70
2023/10/13 02:24:13;;;;;;;41.83;22.40;;;15.90;99.90;;;;;;5116886;27;20041;-70
2023/10/13 02:26:40;;;;;;;47.58;21.38;;;16.10;99.90;;;;;;5116490;27;20067;-70
2023/10/13 02:29:08;;;;;;;41.08;20.52;;;16.20;99.90;;;;;;5116569;27;20035;-70
2023/10/13 02:31:38;;;;;;;42.75;20.35;;;16.20;99.90;;;;;;5116390;27;20166;-70
2023/10/13 02:34:08;;;;;;;38.70;19.55;;;16.10;99.90;;;;;;5135008;27;20518;-70
2023/10/13 02:36:48;;;;;;;42.65;20.25;;;16.00;99.90;;;;;;5099582;27;20047;-70
2023/10/13 02:39:24;;;;;;;48.75;22.75;;;16.10;99.90;;;;;;5134923;27;20118;-70
2023/10/13 02:41:50;;;;;;;41.30;19.70;;;16.20;99.90;;;;;;5116312;27;20039;-70
2023/10/13 02:44:31;;;;;;;32.13;19.13;;;16.10;99.90;;;;;;5116449;27;20239;-70
2023/10/13 02:46:57;;;;;;;38.22;21.02;;;16.30;99.90;;;;;;5116620;27;20389;-70
2023/10/13 02:49:27;;;;;;;38.17;20.02;;;16.10;99.90;;;;;;5116468;27;20043;-70
2023/10/13 02:51:56;;;;;;;38.40;18.80;;;16.10;99.90;;;;;;5116048;27;20126;-70
2023/10/13 02:54:21;;;;;;;36.30;20.35;;;16.20;99.90;;;;;;5116249;27;20047;-70
2023/10/13 02:57:03;;;;;;;34.80;20.38;;;16.20;99.90;;;;;;5133292;27;20406;-70
2023/10/13 02:59:40;;;;;;;45.03;22.25;;;16.10;99.90;;;;;;5134484;27;20047;-70
2023/10/13 03:02:23;;;;;;;50.17;24.67;;;16.10;99.90;;;;;;5099178;27;20031;-70
2023/10/13 03:05:03;;;;;;;53.05;25.02;;;16.20;99.90;;;;;;5116164;27;20122;-70
2023/10/13 03:07:30;;;;;;;52.53;26.40;;;16.40;99.90;;;;;;5116025;27;20035;-70
2023/10/13 03:09:59;;;;;;;59.53;28.13;;;16.40;99.90;;;;;;5134332;27;20106;-70
2023/10/13 03:12:25;;;;;;;55.53;27.88;;;16.20;99.90;;;;;;5134091;27;20391;-70
2023/10/13 03:15:12;;;;;;;52.80;26.92;;;16.40;99.90;;;;;;5115861;27;20038;-70
2023/10/13 03:17:40;;;;;;;60.35;26.98;;;16.20;99.90;;;;;;5115248;27;20054;-70
2023/10/13 03:20:06;;;;;;;52.88;27.25;;;16.20;99.90;;;;;;5115512;27;20050;-70
2023/10/13 03:22:33;;;;;;;49.95;25.67;;;16.40;99.90;;;;;;5134044;27;20054;-70
2023/10/13 03:25:09;;;;;;;52.38;27.05;;;16.30;99.90;;;;;;5115941;27;20516;-70
2023/10/13 03:30:16;;;;;;;58.00;26.27;;;16.50;99.90;;;;;;5115426;27;20490;-70
2023/10/13 03:32:54;;;;;;;45.60;24.92;;;16.40;99.90;;;;;;5115391;27;20050;-70
2023/10/13 03:35:31;;;;;;;45.40;23.45;;;16.40;99.90;;;;;;5115529;27;20039;-70
2023/10/13 03:37:57;;;;;;;48.70;23.40;;;16.40;99.90;;;;;;5115195;27;20039;-70
2023/10/13 03:45:48;;;;;;;36.88;17.95;;;16.40;99.90;;;;;;5133882;27;20039;-70
2023/10/13 03:53:34;;;;;;;25.30;14.82;;;16.20;99.90;;;;;;5115071;27;20039;-70
2023/10/13 03:56:08;;;;;;;31.27;16.92;;;16.30;99.90;;;;;;5115016;27;20087;-70
2023/10/13 03:58:38;;;;;;;36.58;18.80;;;16.40;99.90;;;;;;5133436;27;20080;-70
2023/10/13 04:01:05;;;;;;;37.28;17.63;;;16.40;99.90;;;;;;5114757;27;20512;-70
2023/10/13 04:03:35;;;;;;;34.30;17.77;;;16.30;99.90;;;;;;5114772;27;20047;-70
2023/10/13 04:06:06;;;;;;;38.05;17.75;;;16.30;99.90;;;;;;5115285;27;20049;-70
2023/10/13 04:08:47;;;;;;;33.58;17.63;;;16.50;99.90;;;;;;5133376;27;20075;-70
2023/10/13 04:16:54;;;;;;;36.50;18.75;;;16.30;99.90;;;;;;5093409;27;20494;-70
2023/10/13 04:19:22;;;;;;;37.58;18.60;;;16.40;99.90;;;;;;5114744;27;20101;-70
2023/10/13 04:21:57;;;;;;;40.00;17.95;;;16.40;99.90;;;;;;5114236;28;20498;-70
2023/10/13 04:24:27;;;;;;;38.33;19.02;;;16.40;99.90;;;;;;5114617;28;20031;-70
2023/10/13 04:32:28;;;;;;;32.35;15.68;;;16.40;99.90;;;;;;5114626;27;20046;-70
2023/10/13 04:35:08;;;;;;;33.80;16.83;;;16.40;99.90;;;;;;5114289;28;20113;-70
2023/10/13 04:37:50;;;;;;;30.63;15.35;;;16.30;99.90;;;;;;5114607;28;20050;-71
2023/10/13 04:40:19;;;;;;;32.47;15.77;;;16.50;99.90;;;;;;5097106;27;20122;-71
2023/10/13 04:42:53;;;;;;;33.55;16.17;;;16.30;99.90;;;;;;5114470;27;20037;-70
2023/10/13 04:48:17;;;;;;;32.20;15.52;;;16.40;99.90;;;;;;5132692;27;20043;-70
2023/10/13 04:50:46;;;;;;;36.05;15.32;;;16.50;99.90;;;;;;5097343;28;20047;-70
2023/10/13 04:53:33;;;;;;;28.77;15.35;;;16.30;99.90;;;;;;5114492;28;20498;-70
2023/10/13 05:04:30;;;;;;;35.72;17.48;;;16.50;99.90;;;;;;5069700;28;20402;-70
2023/10/13 05:45:40;;;;;;;27.15;14.02;;;16.30;99.90;;;;;;5117870;27;20056;-70
2023/10/13 05:48:13;;;;;;;19.38;11.95;;;16.40;99.90;;;;;;5136141;27;20047;-70
2023/10/13 05:51:33;;;;;;;20.73;11.48;;;16.30;99.90;;;;;;5117535;27;20031;-70
2023/10/13 06:29:19;;;;;;;11.10;6.88;;;16.30;99.90;;;;;;5125585;27;20119;-70
2023/10/13 06:31:46;;;;;;;10.77;6.55;;;16.10;99.90;;;;;;5114456;28;20047;-70
2023/10/13 06:34:15;;;;;;;9.93;6.25;;;16.10;99.90;;;;;;5113351;28;20043;-70
2023/10/13 06:36:46;;;;;;;9.18;6.38;;;16.30;99.90;;;;;;5113553;28;20083;-70
2023/10/13 06:41:55;;;;;;;9.52;6.70;;;16.10;99.90;;;;;;5112811;28;20419;-70
2023/10/13 06:44:24;;;;;;;12.48;5.63;;;16.10;99.90;;;;;;5089921;28;20047;-70
2023/10/13 06:46:49;;;;;;;8.00;5.18;;;16.30;99.90;;;;;;5109608;27;20036;-70
2023/10/13 06:49:18;;;;;;;7.97;5.90;;;16.20;99.90;;;;;;5116583;27;20035;-70
2023/10/13 06:51:46;;;;;;;9.90;4.95;;;16.30;99.90;;;;;;5115795;27;20035;-70
2023/10/13 06:54:19;;;;;;;6.28;4.50;;;16.30;99.90;;;;;;5116045;27;20053;-70
2023/10/13 06:56:45;;;;;;;;;;;16.30;99.90;;;;;;5103798;28;20032;-70
2023/10/13 06:59:13;;;;;;;5.38;4.13;;;16.30;99.90;;;;;;5112242;27;19926;-70
2023/10/13 07:01:41;;;;;;;8.38;4.80;;;16.30;99.90;;;;;;5115983;27;20042;-70
2023/10/13 07:04:14;;;;;;;9.10;4.60;;;16.40;99.90;;;;;;5116120;27;20088;-70
2023/10/13 07:06:50;;;;;;;9.05;5.47;;;16.20;99.90;;;;;;5134481;27;20043;-70
2023/10/13 07:10:01;;;;;;;9.60;4.43;;;16.20;99.90;;;;;;5098898;27;20039;-70
2023/10/13 07:12:06;;;;;;;9.18;4.18;;;16.40;99.90;;;;;;5119756;27;20200;-70
2023/10/13 07:14:40;;;;;;;6.68;3.80;;;16.60;99.90;;;;;;5099084;27;20035;-69
2023/10/13 07:17:08;;;;;;;8.85;4.88;;;16.40;99.90;;;;;;5134160;27;20054;-70
2023/10/13 07:19:33;;;;;;;10.02;4.63;;;16.40;99.90;;;;;;5098730;27;20051;-70
2023/10/13 07:22:19;;;;;;;10.98;4.80;;;16.50;99.90;;;;;;5115311;27;20544;-70
2023/10/13 07:24:49;;;;;;;10.57;5.22;;;16.50;99.90;;;;;;5115587;27;20042;-70
2023/10/13 07:27:25;;;;;;;10.98;5.10;;;16.40;99.90;;;;;;5115662;27;20047;-69
2023/10/13 07:29:56;;;;;;;10.52;4.18;;;16.50;99.90;;;;;;5115522;27;20083;-70
2023/10/13 07:32:26;;;;;;;8.43;4.50;;;16.60;99.90;;;;;;5115475;27;20074;-70
2023/10/13 07:34:55;;;;;;;11.50;4.85;;;16.50;99.90;;;;;;5133834;27;20447;-70
2023/10/13 07:37:28;;;;;;;11.30;5.60;;;16.40;99.90;;;;;;5133860;27;20368;-70
2023/10/13 07:39:57;;;;;;;9.05;5.55;;;16.50;99.90;;;;;;5133641;27;20039;-70
2023/10/13 07:42:31;;;;;;;10.80;5.20;;;16.50;99.90;;;;;;5115365;27;20111;-71
2023/10/13 07:44:58;;;;;;;8.50;4.55;;;16.40;99.90;;;;;;5115205;27;20035;-70
2023/10/13 07:47:26;;;;;;;9.50;6.03;;;16.50;99.90;;;;;;5115418;27;20039;-70
2023/10/13 07:49:52;;;;;;;9.52;5.05;;;16.50;99.90;;;;;;5115000;27;20537;-70
2023/10/13 07:54:49;;;;;;;10.55;5.15;;;16.50;99.90;;;;;;5114939;27;20043;-70
2023/10/13 07:57:15;;;;;;;10.43;5.53;;;16.30;99.90;;;;;;5114892;27;20088;-70
2023/10/13 07:59:47;;;;;;;10.40;5.50;;;16.60;99.90;;;;;;5114850;27;20047;-69
2023/10/13 08:02:15;;;;;;;10.10;5.32;;;16.50;99.90;;;;;;5133267;27;20039;-70
2023/10/13 08:04:41;;;;;;;17.55;5.20;;;16.50;99.90;;;;;;5114337;27;20069;-70
2023/10/13 08:07:13;;;;;;;11.95;5.88;;;16.30;99.90;;;;;;5115133;27;20558;-70
2023/10/13 08:09:43;;;;;;;11.45;5.03;;;16.40;99.90;;;;;;5115027;27;20075;-70
2023/10/13 08:12:11;;;;;;;9.32;5.30;;;16.50;99.90;;;;;;5097579;27;20039;-70
2023/10/13 08:14:39;;;;;;;14.98;5.38;;;16.50;99.90;;;;;;5097728;27;20047;-70
2023/10/13 08:17:12;;;;;;;11.10;5.25;;;16.50;99.90;;;;;;5133043;27;20039;-70
2023/10/13 08:19:47;;;;;;;11.82;6.30;;;16.60;99.90;;;;;;5132867;27;20134;-69
2023/10/13 08:37:56;;;;;;;11.48;6.07;;;16.50;99.90;;;;;;5069861;28;20050;-78
2023/10/13 08:43:11;;;;;;;14.00;6.15;;;16.70;99.90;;;;;;5111412;28;20040;-77
2023/10/13 08:53:32;;;;;;;15.60;6.20;;;16.70;99.90;;;;;;5110799;28;20044;-77
2023/10/13 09:01:35;;;;;;;13.80;6.60;;;16.80;99.90;;;;;;5110718;28;20624;-78
2023/10/13 09:04:21;;;;;;;14.70;6.70;;;16.80;99.90;;;;;;5110822;28;20067;-77
2023/10/13 09:07:07;;;;;;;14.80;6.72;;;16.90;99.90;;;;;;5094057;28;20127;-77
2023/10/13 09:09:58;;;;;;;16.10;7.60;;;17.00;99.90;;;;;;5093864;28;20509;-77
2023/10/13 09:18:12;;;;;;;18.50;7.95;;;17.30;99.90;;;;;;5113590;28;20047;-79
2023/10/13 09:23:08;;;;;;;17.80;8.32;;;17.30;99.90;;;;;;5114674;28;20127;-78
2023/10/13 09:25:38;;;;;;;15.00;8.38;;;17.30;99.90;;;;;;5114901;28;20422;-80
2023/10/13 09:28:14;;;;;;;20.73;9.50;;;17.60;99.90;;;;;;5114805;28;20035;-77
2023/10/13 09:30:52;;;;;;;17.63;8.93;;;17.40;99.90;;;;;;5097228;28;20663;-77
2023/10/13 09:33:40;;;;;;;17.98;8.57;;;17.50;99.90;;;;;;5096809;28;20070;-77
2023/10/13 09:36:07;;;;;;;17.75;8.23;;;17.70;99.90;;;;;;5111959;28;20508;-77
2023/10/13 09:38:35;;;;;;;17.98;7.88;;;17.50;99.90;;;;;;5115022;28;20044;-78
2023/10/13 09:41:25;;;;;;;21.73;8.18;;;17.60;99.90;;;;;;5093940;28;20032;-77
2023/10/13 09:43:52;;;;;;;17.48;8.48;;;17.80;99.90;;;;;;5112729;28;20040;-76
2023/10/13 09:46:26;;;;;;;15.02;7.50;;;17.90;99.90;;;;;;5115177;28;20052;-77
2023/10/13 09:49:14;;;;;;;13.73;7.20;;;17.80;99.90;;;;;;5114480;28;20104;-78
2023/10/13 09:51:44;;;;;;;16.67;8.35;;;17.90;99.90;;;;;;5113890;28;20050;-77
2023/10/13 09:54:34;;;;;;;14.13;7.70;;;18.00;99.90;;;;;;5114097;28;20085;-77
2023/10/13 09:57:11;;;;;;;17.10;7.75;;;17.80;99.90;;;;;;5115295;28;20515;-77
2023/10/13 09:59:51;;;;;;;16.05;7.45;;;17.80;99.90;;;;;;5115042;28;20130;-79
2023/10/13 10:02:27;;;;;;;15.48;7.82;;;18.10;99.90;;;;;;5096940;28;20084;-77
2023/10/13 10:04:55;;;;;;;13.95;6.85;;;18.00;99.90;;;;;;5114185;28;20039;-78
2023/10/13 10:07:28;;;;;;;12.68;7.60;;;18.20;99.90;;;;;;5096854;28;20054;-78
2023/10/13 10:09:58;;;;;;;12.77;6.68;;;17.90;99.90;;;;;;5114212;28;20038;-77
2023/10/13 10:12:47;;;;;;;15.63;7.00;;;18.00;99.90;;;;;;5114591;28;20035;-77
2023/10/13 10:15:28;;;;;;;15.23;6.78;;;18.30;99.90;;;;;;5111445;28;20027;-78
2023/10/13 10:17:54;;;;;;;13.68;7.35;;;18.20;99.90;;;;;;5112436;28;20047;-78
2023/10/13 10:20:48;;;;;;;12.32;6.53;;;18.50;99.90;;;;;;5114095;28;20096;-77
2023/10/13 10:23:36;;;;;;;20.02;7.03;;;18.50;99.90;;;;;;5110980;28;20035;-77
2023/10/13 10:26:19;;;;;;;11.88;6.30;;;18.50;99.90;;;;;;5095362;28;20036;-79
2023/10/13 10:28:46;;;;;;;13.70;7.18;;;18.50;99.90;;;;;;5113943;28;20047;-77
2023/10/13 10:31:12;;;;;;;16.73;5.97;;;18.40;99.90;;;;;;5114545;28;20036;-78
2023/10/13 10:33:41;;;;;;;17.35;7.35;;;18.50;99.90;;;;;;5113237;28;20045;-76
2023/10/13 10:36:14;;;;;;;12.05;7.00;;;18.30;99.90;;;;;;5114713;28;20057;-76
2023/10/13 10:38:52;;;;;;;21.23;6.68;;;18.30;99.90;;;;;;5096149;28;20047;-77
2023/10/13 10:41:29;;;;;;;20.70;6.50;;;18.40;99.90;;;;;;5114123;28;20039;-77
2023/10/13 10:43:55;;;;;;;13.30;6.00;;;18.50;99.90;;;;;;5113081;28;20027;-76
2023/10/13 10:46:40;;;;;;;15.35;6.20;;;18.50;99.90;;;;;;5114240;28;20046;-77
2023/10/13 10:49:08;;;;;;;13.88;6.28;;;18.60;99.90;;;;;;5112936;28;20040;-77
2023/10/13 10:51:43;;;;;;;14.48;6.55;;;18.70;99.90;;;;;;5095677;28;20127;-78
2023/10/13 10:54:18;;;;;;;15.15;7.20;;;18.60;99.90;;;;;;5095875;28;20050;-77
2023/10/13 10:56:44;;;;;;;14.13;6.10;;;18.70;99.90;;;;;;5113984;28;20036;-77
2023/10/13 10:59:18;;;;;;;16.33;6.13;;;18.60;99.90;;;;;;5113797;28;20509;-78
2023/10/13 11:01:47;;;;;;;18.08;6.03;;;18.60;99.90;;;;;;5114291;28;20051;-78
2023/10/13 11:04:14;;;;;;;17.25;5.97;;;18.70;99.90;;;;;;5113066;28;20461;-77
2023/10/13 11:06:58;;;;;;;18.95;7.05;;;18.90;99.90;;;;;;5110986;28;20485;-77
2023/10/13 11:09:31;;;;;;;14.82;6.03;;;18.90;99.90;;;;;;5094794;28;20333;-77
2023/10/13 11:15:02;;;;;;;13.68;5.40;;;19.00;99.90;;;;;;5109842;28;20047;-77
2023/10/13 11:17:41;;;;;;;15.30;5.97;;;19.20;99.90;;;;;;5112474;28;20036;-77
2023/10/13 11:20:18;;;;;;;14.30;6.18;;;19.10;99.90;;;;;;5112477;28;20392;-77
2023/10/13 11:22:47;;;;;;;22.45;6.25;;;19.20;99.90;;;;;;5112150;28;20040;-77
2023/10/13 11:25:46;;;;;;;20.40;7.00;;;19.00;99.90;;;;;;5095315;28;20036;-77
2023/10/13 11:28:27;;;;;;;13.27;6.50;;;19.10;99.90;;;;;;5109288;28;20517;-78
2023/10/13 11:30:58;;;;;;;13.43;5.50;;;19.10;99.90;;;;;;5074987;28;20062;-77
2023/10/13 11:33:28;;;;;;;16.17;5.30;;;19.10;99.90;;;;;;5091660;28;20047;-77
2023/10/13 11:38:25;;;;;;;12.27;5.45;;;19.10;99.90;;;;;;5091645;28;20048;-76
2023/10/13 11:46:13;;;;;;;16.77;5.93;;;19.20;99.90;;;;;;5091947;28;20055;-77
2023/10/13 11:48:41;;;;;;;17.67;5.63;;;19.20;99.90;;;;;;5091545;28;20044;-77
2023/10/13 11:51:17;;;;;;;13.75;5.43;;;19.20;99.90;;;;;;5091254;28;20054;-77
2023/10/13 11:53:51;;;;;;;16.35;6.18;;;19.10;99.90;;;;;;5091572;28;20448;-77
2023/10/13 11:56:20;;;;;;;23.05;6.35;;;19.00;99.90;;;;;;5091393;28;20492;-76
2023/10/13 11:58:47;;;;;;;19.95;7.03;;;19.00;99.90;;;;;;5074330;28;20037;-77
2023/10/13 12:11:42;;;;;;;17.75;6.18;;;19.00;99.90;;;;;;5091180;28;20043;-77
2023/10/13 12:14:19;;;;;;;13.57;6.55;;;19.20;99.90;;;;;;5091136;28;20066;-77
2023/10/13 12:16:51;;;;;;;18.15;6.35;;;19.20;99.90;;;;;;5091327;28;20124;-77
2023/10/13 12:19:24;;;;;;;18.88;7.00;;;19.00;99.90;;;;;;5073921;28;20036;-77
2023/10/13 12:21:54;;;;;;;14.43;6.15;;;19.10;99.90;;;;;;5090641;28;20047;-77
2023/10/13 12:27:20;;;;;;;14.00;5.68;;;19.10;99.90;;;;;;5091391;28;20044;-77
2023/10/13 12:29:52;;;;;;;14.95;6.97;;;19.00;99.90;;;;;;5090814;28;20047;-78
2023/10/13 12:32:24;;;;;;;13.35;7.07;;;19.10;99.90;;;;;;5090630;28;20089;-77
2023/10/13 12:51:20;;;;;;;14.15;6.30;;;18.80;99.90;;;;;;5091294;28;20123;-76
2023/10/13 12:53:51;;;;;;;18.55;6.78;;;18.80;99.90;;;;;;5073853;28;20036;-76
2023/10/13 12:56:25;;;;;;;13.73;6.43;;;18.70;99.90;;;;;;5091884;28;20491;-76
2023/10/13 12:58:51;;;;;;;17.98;7.22;;;18.70;99.90;;;;;;5091596;28;20044;-76
2023/10/13 13:01:21;;;;;;;16.50;8.07;;;18.60;99.90;;;;;;5091704;28;20057;-76
2023/10/13 13:03:49;;;;;;;14.93;6.47;;;18.70;99.90;;;;;;5090391;28;20081;-76
2023/10/13 13:06:24;;;;;;;12.77;6.63;;;18.80;99.90;;;;;;5090378;28;20044;-75
2023/10/13 13:08:54;;;;;;;15.32;6.63;;;18.60;99.90;;;;;;5091722;28;20059;-76
2023/10/13 13:11:20;;;;;;;15.80;7.28;;;18.60;99.90;;;;;;5090282;28;20055;-75
2023/10/13 13:13:46;;;;;;;17.98;6.88;;;18.60;99.90;;;;;;5090558;28;20136;-76
2023/10/13 13:16:13;;;;;;;15.13;6.78;;;18.60;99.90;;;;;;5091813;28;20519;-75
2023/10/13 13:18:39;;;;;;;13.45;6.78;;;18.70;99.90;;;;;;5090189;28;20522;-75
2023/10/13 13:21:06;;;;;;;18.80;8.00;;;18.70;99.90;;;;;;5090054;28;20055;-75
2023/10/13 13:23:34;;;;;;;16.23;6.90;;;18.50;99.90;;;;;;5073280;28;20040;-75
2023/10/13 13:26:00;;;;;;;13.18;7.47;;;18.60;99.90;;;;;;5090177;28;20745;-75
2023/10/13 13:28:28;;;;;;;16.67;7.50;;;18.60;99.90;;;;;;5090241;28;20078;-75
2023/10/13 13:30:55;;;;;;;19.30;7.95;;;18.40;99.90;;;;;;5089942;28;20075;-75
2023/10/13 13:33:25;;;;;;;16.92;8.35;;;18.50;99.90;;;;;;5091409;28;20063;-74
2023/10/13 13:35:55;;;;;;;17.00;7.68;;;18.40;99.90;;;;;;5090108;28;20464;-75
2023/10/13 13:38:27;;;;;;;21.33;8.93;;;18.40;99.90;;;;;;5089925;28;20047;-75
2023/10/13 13:40:54;;;;;;;16.85;7.72;;;18.40;99.90;;;;;;5090086;28;20043;-75
2023/10/13 13:43:38;;;;;;;17.88;8.35;;;18.30;99.90;;;;;;5073201;28;20044;-75
2023/10/13 13:46:10;;;;;;;19.67;8.57;;;18.20;99.90;;;;;;5091298;28;20036;-75
2023/10/13 13:48:40;;;;;;;19.35;9.15;;;18.20;99.90;;;;;;5089845;28;20127;-75
2023/10/13 13:51:19;;;;;;;15.57;7.95;;;18.10;99.90;;;;;;5072832;28;20079;-75
2023/10/13 13:53:45;;;;;;;18.42;9.10;;;18.10;99.90;;;;;;5090277;28;20044;-75
2023/10/13 13:56:18;;;;;;;20.00;8.10;;;18.20;99.90;;;;;;5089882;28;20040;-75
2023/10/13 13:58:49;;;;;;;15.82;7.40;;;18.20;99.90;;;;;;5109951;28;20035;-75
2023/10/13 14:01:17;;;;;;;19.38;7.60;;;18.30;99.90;;;;;;5109926;28;20510;-75
2023/10/13 14:03:47;;;;;;;18.45;9.05;;;18.20;99.90;;;;;;5096276;28;20045;-77
2023/10/13 14:06:28;;;;;;;18.05;8.90;;;18.20;99.90;;;;;;5114157;28;20036;-75
2023/10/13 14:08:56;;;;;;;23.08;8.88;;;18.10;99.90;;;;;;5114262;28;20506;-75
2023/10/13 14:14:11;;;;;;;19.98;8.98;;;18.00;99.90;;;;;;5113824;28;20046;-75
2023/10/13 14:16:37;;;;;;;;;;;18.10;99.90;;;;;;5114287;28;20048;-74
2023/10/13 14:19:07;;;;;;;18.50;8.77;;;18.00;99.90;;;;;;5113700;28;19926;-75
2023/10/13 14:21:34;;;;;;;15.75;8.73;;;18.10;99.90;;;;;;5113766;28;20062;-75
2023/10/13 14:24:01;;;;;;;19.27;9.30;;;17.90;99.90;;;;;;5113531;28;20039;-75
2023/10/13 14:26:28;;;;;;;15.52;8.60;;;18.10;99.90;;;;;;5113450;28;20446;-74
2023/10/13 14:29:14;;;;;;;23.13;9.02;;;18.10;99.90;;;;;;5113740;28;20063;-74
2023/10/13 14:31:41;;;;;;;23.98;9.27;;;18.10;99.90;;;;;;5096464;28;20039;-75
2023/10/13 14:34:07;;;;;;;20.33;9.95;;;18.00;99.90;;;;;;5113620;28;20524;-75
2023/10/13 14:36:35;;;;;;;19.08;9.02;;;18.10;99.90;;;;;;5113559;28;20071;-75
2023/10/13 14:39:10;;;;;;;18.92;9.02;;;18.10;99.90;;;;;;5096111;28;20032;-77
2023/10/13 14:41:38;;;;;;;18.40;8.75;;;18.10;99.90;;;;;;5112986;28;20512;-76
2023/10/13 14:44:07;;;;;;;17.33;8.15;;;18.10;99.90;;;;;;5113183;28;20035;-76
2023/10/13 14:46:38;;;;;;;15.20;9.00;;;18.20;99.90;;;;;;5113213;28;20036;-77
2023/10/13 14:49:05;;;;;;;16.00;8.60;;;18.30;99.90;;;;;;5113268;28;20036;-78
2023/10/13 14:51:31;;;;;;;22.50;8.23;;;18.10;99.90;;;;;;5096180;28;20050;-76
2023/10/13 14:53:59;;;;;;;14.25;8.00;;;18.10;99.90;;;;;;5113089;28;20551;-76
2023/10/13 14:56:27;;;;;;;17.48;8.55;;;18.20;99.90;;;;;;5112930;28;20483;-76
2023/10/13 14:58:53;;;;;;;23.40;8.07;;;18.20;99.90;;;;;;5112824;28;20047;-75
2023/10/13 15:01:20;;;;;;;17.77;7.38;;;18.40;99.90;;;;;;5112820;28;20043;-77
2023/10/13 15:03:48;;;;;;;17.25;8.43;;;18.30;99.90;;;;;;5112683;28;20047;-75
2023/10/13 15:06:20;;;;;;;17.33;8.57;;;18.50;99.90;;;;;;5095746;28;20047;-76
2023/10/13 15:08:49;;;;;;;17.70;8.65;;;18.40;99.90;;;;;;5112712;28;20047;-77
2023/10/13 15:11:15;;;;;;;20.20;9.90;;;18.40;99.90;;;;;;5112332;28;20089;-76
2023/10/13 15:13:41;;;;;;;15.27;8.35;;;18.50;99.90;;;;;;5113437;28;20035;-76
2023/10/13 15:16:24;;;;;;;13.52;7.28;;;18.40;99.90;;;;;;5112504;28;20035;-76
2023/10/13 15:18:52;;;;;;;23.05;9.40;;;18.40;99.90;;;;;;5112424;28;20040;-77
2023/10/13 15:21:37;;;;;;;21.40;9.20;;;18.30;99.90;;;;;;5112350;28;20118;-76
2023/10/13 15:24:15;;;;;;;19.50;9.65;;;18.30;99.90;;;;;;5113589;28;20118;-76
2023/10/13 15:26:45;;;;;;;21.67;8.48;;;18.20;99.90;;;;;;5112627;28;20461;-77
2023/10/13 15:29:12;;;;;;;22.50;8.68;;;18.20;99.90;;;;;;5095388;28;20465;-78
2023/10/13 15:31:41;;;;;;;27.27;10.00;;;18.10;99.90;;;;;;5113222;28;20510;-75
2023/10/13 15:34:15;;;;;;;19.00;9.52;;;18.00;99.90;;;;;;5112221;28;20042;-75
2023/10/13 15:36:45;;;;;;;20.17;10.10;;;18.10;99.90;;;;;;5095511;28;20505;-78
2023/10/13 15:39:15;;;;;;;20.40;9.23;;;18.00;99.90;;;;;;5095053;28;20123;-77
2023/10/13 15:41:42;;;;;;;15.55;9.20;;;17.90;99.90;;;;;;5113379;28;20049;-78
2023/10/13 15:44:12;;;;;;;19.05;10.25;;;17.80;99.90;;;;;;5112037;28;20071;-77
2023/10/13 15:46:39;;;;;;;22.88;9.45;;;17.90;99.90;;;;;;5111903;28;20486;-76
2023/10/13 15:49:05;;;;;;;23.60;10.93;;;18.00;99.90;;;;;;5111841;28;20085;-75
2023/10/13 15:51:36;;;;;;;16.38;10.60;;;17.90;99.90;;;;;;5094180;28;20556;-75
2023/10/13 15:54:02;;;;;;;19.60;11.55;;;17.80;99.90;;;;;;5111718;28;20466;-74
2023/10/13 15:56:32;;;;;;;20.80;11.98;;;17.80;99.90;;;;;;5111874;28;20055;-75
2023/10/13 15:59:01;;;;;;;26.30;10.93;;;17.90;99.90;;;;;;5112549;28;20127;-75
2023/10/13 16:01:28;;;;;;;20.00;11.15;;;17.70;99.90;;;;;;5110738;28;20510;-76
2023/10/13 16:03:54;;;;;;;18.77;9.90;;;17.70;99.90;;;;;;5111288;28;20445;-75
2023/10/13 16:06:25;;;;;;;23.88;11.27;;;17.70;99.90;;;;;;5112288;28;20112;-75
2023/10/13 16:08:51;;;;;;;16.17;10.27;;;17.70;99.90;;;;;;5109362;27;20039;-75
2023/10/13 16:11:17;;;;;;;24.98;11.70;;;17.90;99.90;;;;;;5114352;27;20044;-76
2023/10/13 16:13:44;;;;;;;23.65;11.02;;;17.90;99.90;;;;;;5112890;27;20035;-77
2023/10/13 16:16:23;;;;;;;19.65;10.30;;;17.90;99.90;;;;;;5114558;27;20061;-77